KAFO/AFO METAR and TAF weather

Enter ICAO airport designator
Station Type Date Time Source
KAFO METAR 2020/12/05 05:15 UTC NOAA

KAFO 050515Z AUTO 00000KT 10SM CLR M15/M17 A3047 RMK AO2


Station Type Date Time Source
KAFO Decoded METAR 2020/12/05 05:15 UTC NOAA

Station name not available
Dec 05, 2020 - 12:15 AM EST / 2020.12.05 0515 UTC
Wind: Calm:0
Visibility: 10 mile(s):0
Sky conditions: clear
Temperature: 5 F (-15 C)
Dew Point: 1 F (-17 C)
Relative Humidity: 84%
Pressure (altimeter): 30.47 in. Hg (1031 hPa)
ob: KAFO 050515Z AUTO 00000KT 10SM CLR M15/M17 A3047 RMK AO2
cycle: 5

Station Type Date Time Source
KAFO TAF UTC NOAA

Error!

Example: see airport list